sensor_id;sensor_type;location;lat;lon;timestamp;P1;P2;P0
51258;PMS7003;37327;54.254;18.504;2022-09-23T00:03:10;0;0;0
51258;PMS7003;37327;54.254;18.504;2022-09-23T00:06:34;0;0;0
51258;PMS7003;37327;54.254;18.504;2022-09-23T00:09:49;0;0;0
51258;PMS7003;37327;54.254;18.504;2022-09-23T00:13:06;0;0;0
51258;PMS7003;37327;54.254;18.504;2022-09-23T00:16:18;0;0;0
51258;PMS7003;37327;54.254;18.504;2022-09-23T00:19:34;0;0;0
51258;PMS7003;37327;54.254;18.504;2022-09-23T00:22:50;0;0;0
51258;PMS7003;37327;54.254;18.504;2022-09-23T00:26:08;0;0;0
51258;PMS7003;37327;54.254;18.504;2022-09-23T00:29:24;0;0;0
51258;PMS7003;37327;54.254;18.504;2022-09-23T00:32:29;0;0;0
51258;PMS7003;37327;54.254;18.504;2022-09-23T00:35:41;1;0;0
51258;PMS7003;37327;54.254;18.504;2022-09-23T00:39:10;0;0;0
51258;PMS7003;37327;54.254;18.504;2022-09-23T00:42:19;0;0;0
51258;PMS7003;37327;54.254;18.504;2022-09-23T00:45:32;0;0;0
51258;PMS7003;37327;54.254;18.504;2022-09-23T00:48:45;0;0;0
51258;PMS7003;37327;54.254;18.504;2022-09-23T00:52:04;0;0;0
51258;PMS7003;37327;54.254;18.504;2022-09-23T00:55:15;0;0;0
51258;PMS7003;37327;54.254;18.504;2022-09-23T00:58:29;0;0;0
51258;PMS7003;37327;54.254;18.504;2022-09-23T01:01:36;0;0;0
51258;PMS7003;37327;54.254;18.504;2022-09-23T01:04:45;0;0;0
51258;PMS7003;37327;54.254;18.504;2022-09-23T01:07:55;0;0;0
51258;PMS7003;37327;54.254;18.504;2022-09-23T01:14:22;0;0;0
51258;PMS7003;37327;54.254;18.504;2022-09-23T01:20:57;0;0;0
51258;PMS7003;37327;54.254;18.504;2022-09-23T01:51:00;2;0;0
51258;PMS7003;37327;54.254;18.504;2022-09-23T01:57:33;0;0;0
51258;PMS7003;37327;54.254;18.504;2022-09-23T02:00:50;0;0;0
51258;PMS7003;37327;54.254;18.504;2022-09-23T02:04:09;0;0;0
51258;PMS7003;37327;54.254;18.504;2022-09-23T02:07:28;0;0;0
51258;PMS7003;37327;54.254;18.504;2022-09-23T02:14:03;0;0;0
51258;PMS7003;37327;54.254;18.504;2022-09-23T02:17:40;0;0;0
51258;PMS7003;37327;54.254;18.504;2022-09-23T02:20:37;0;0;0
51258;PMS7003;37327;54.254;18.504;2022-09-23T02:23:50;0;0;0
51258;PMS7003;37327;54.254;18.504;2022-09-23T02:30:33;0;0;0
51258;PMS7003;37327;54.254;18.504;2022-09-23T02:33:54;0;0;0
51258;PMS7003;37327;54.254;18.504;2022-09-23T02:44:06;0;0;0
51258;PMS7003;37327;54.254;18.504;2022-09-23T02:47:10;0;0;0
51258;PMS7003;37327;54.254;18.504;2022-09-23T02:50:27;0;0;0
51258;PMS7003;37327;54.254;18.504;2022-09-23T02:53:43;0;0;0
51258;PMS7003;37327;54.254;18.504;2022-09-23T02:56:58;0;0;0
51258;PMS7003;37327;54.254;18.504;2022-09-23T03:00:16;0;0;0
51258;PMS7003;37327;54.254;18.504;2022-09-23T03:03:51;0;0;0
51258;PMS7003;37327;54.254;18.504;2022-09-23T03:13:32;0;0;0
51258;PMS7003;37327;54.254;18.504;2022-09-23T03:20:15;0;0;0
51258;PMS7003;37327;54.254;18.504;2022-09-23T03:23:30;0;0;0
51258;PMS7003;37327;54.254;18.504;2022-09-23T03:26:45;0;0;0
51258;PMS7003;37327;54.254;18.504;2022-09-23T03:29:52;0;0;0
51258;PMS7003;37327;54.254;18.504;2022-09-23T03:33:06;0;0;0
51258;PMS7003;37327;54.254;18.504;2022-09-23T03:36:28;0;0;0
51258;PMS7003;37327;54.254;18.504;2022-09-23T03:39:55;0;0;0
51258;PMS7003;37327;54.254;18.504;2022-09-23T03:43:08;0;0;0
51258;PMS7003;37327;54.254;18.504;2022-09-23T03:46:27;0;0;0
51258;PMS7003;37327;54.254;18.504;2022-09-23T03:49:44;0;0;0
51258;PMS7003;37327;54.254;18.504;2022-09-23T03:53:01;0;0;0
51258;PMS7003;37327;54.254;18.504;2022-09-23T03:56:11;0;0;0
51258;PMS7003;37327;54.254;18.504;2022-09-23T03:59:24;0;0;0
51258;PMS7003;37327;54.254;18.504;2022-09-23T04:02:37;0;0;0
51258;PMS7003;37327;54.254;18.504;2022-09-23T04:06:07;0;0;0
51258;PMS7003;37327;54.254;18.504;2022-09-23T04:09:21;0;0;0
51258;PMS7003;37327;54.254;18.504;2022-09-23T04:12:26;0;0;0
51258;PMS7003;37327;54.254;18.504;2022-09-23T04:15:30;0;0;0
51258;PMS7003;37327;54.254;18.504;2022-09-23T04:18:34;0;0;0
51258;PMS7003;37327;54.254;18.504;2022-09-23T04:21:39;0;0;0
51258;PMS7003;37327;54.254;18.504;2022-09-23T04:24:46;0;0;0
51258;PMS7003;37327;54.254;18.504;2022-09-23T04:27:52;0;0;0
51258;PMS7003;37327;54.254;18.504;2022-09-23T04:31:02;0;0;0
51258;PMS7003;37327;54.254;18.504;2022-09-23T04:34:15;0;0;0
51258;PMS7003;37327;54.254;18.504;2022-09-23T04:37:48;0;0;0
51258;PMS7003;37327;54.254;18.504;2022-09-23T04:40:53;0;0;0
51258;PMS7003;37327;54.254;18.504;2022-09-23T04:44:01;0;0;0
51258;PMS7003;37327;54.254;18.504;2022-09-23T04:50:26;0;0;0
51258;PMS7003;37327;54.254;18.504;2022-09-23T04:53:39;0;0;0
51258;PMS7003;37327;54.254;18.504;2022-09-23T04:56:44;0;0;0
51258;PMS7003;37327;54.254;18.504;2022-09-23T05:00:13;0;0;0
51258;PMS7003;37327;54.254;18.504;2022-09-23T05:03:19;0;0;0
51258;PMS7003;37327;54.254;18.504;2022-09-23T05:06:32;0;0;0
51258;PMS7003;37327;54.254;18.504;2022-09-23T05:09:45;0;0;0
51258;PMS7003;37327;54.254;18.504;2022-09-23T05:12:57;0;0;0
51258;PMS7003;37327;54.254;18.504;2022-09-23T05:16:10;0;0;0
51258;PMS7003;37327;54.254;18.504;2022-09-23T05:19:22;0;0;0
51258;PMS7003;37327;54.254;18.504;2022-09-23T05:22:52;0;0;0
51258;PMS7003;37327;54.254;18.504;2022-09-23T05:26:05;0;0;0
51258;PMS7003;37327;54.254;18.504;2022-09-23T05:29:22;0;0;0
51258;PMS7003;37327;54.254;18.504;2022-09-23T05:32:30;0;0;0
51258;PMS7003;37327;54.254;18.504;2022-09-23T05:35:46;0;0;0
51258;PMS7003;37327;54.254;18.504;2022-09-23T05:38:57;0;0;0
51258;PMS7003;37327;54.254;18.504;2022-09-23T05:42:15;0;0;0
51258;PMS7003;37327;54.254;18.504;2022-09-23T05:45:28;0;0;0
51258;PMS7003;37327;54.254;18.504;2022-09-23T05:48:42;0;0;0
51258;PMS7003;37327;54.254;18.504;2022-09-23T05:51:55;0;0;0
51258;PMS7003;37327;54.254;18.504;2022-09-23T05:55:07;0;0;0
51258;PMS7003;37327;54.254;18.504;2022-09-23T05:58:13;0;0;0
51258;PMS7003;37327;54.254;18.504;2022-09-23T06:01:43;0;0;0
51258;PMS7003;37327;54.254;18.504;2022-09-23T06:04:52;0;0;0
51258;PMS7003;37327;54.254;18.504;2022-09-23T06:08:05;0;0;0
51258;PMS7003;37327;54.254;18.504;2022-09-23T06:11:18;0;0;0
51258;PMS7003;37327;54.254;18.504;2022-09-23T06:14:33;0;0;0
51258;PMS7003;37327;54.254;18.504;2022-09-23T06:18:02;0;0;0
51258;PMS7003;37327;54.254;18.504;2022-09-23T06:21:09;0;0;0
51258;PMS7003;37327;54.254;18.504;2022-09-23T06:24:16;0;0;0
51258;PMS7003;37327;54.254;18.504;2022-09-23T06:27:31;0;0;0
51258;PMS7003;37327;54.254;18.504;2022-09-23T06:30:36;0;0;0
51258;PMS7003;37327;54.254;18.504;2022-09-23T06:33:54;0;0;0
51258;PMS7003;37327;54.254;18.504;2022-09-23T06:37:03;0;0;0
51258;PMS7003;37327;54.254;18.504;2022-09-23T06:40:19;0;0;0
51258;PMS7003;37327;54.254;18.504;2022-09-23T06:43:24;0;0;0
51258;PMS7003;37327;54.254;18.504;2022-09-23T06:46:34;0;0;0
51258;PMS7003;37327;54.254;18.504;2022-09-23T06:49:39;0;0;0
51258;PMS7003;37327;54.254;18.504;2022-09-23T06:52:48;0;0;0
51258;PMS7003;37327;54.254;18.504;2022-09-23T06:56:23;0;0;0
51258;PMS7003;37327;54.254;18.504;2022-09-23T06:59:28;0;0;0
51258;PMS7003;37327;54.254;18.504;2022-09-23T07:02:35;0;0;0
51258;PMS7003;37327;54.254;18.504;2022-09-23T07:05:47;0;0;0
51258;PMS7003;37327;54.254;18.504;2022-09-23T07:08:52;0;0;0
51258;PMS7003;37327;54.254;18.504;2022-09-23T07:12:06;0;0;0
51258;PMS7003;37327;54.254;18.504;2022-09-23T07:15:37;0;0;0
51258;PMS7003;37327;54.254;18.504;2022-09-23T07:18:49;0;0;0
51258;PMS7003;37327;54.254;18.504;2022-09-23T07:21:55;0;0;0
51258;PMS7003;37327;54.254;18.504;2022-09-23T07:24:59;0;0;0
51258;PMS7003;37327;54.254;18.504;2022-09-23T07:28:03;0;0;0
51258;PMS7003;37327;54.254;18.504;2022-09-23T07:31:09;0;0;0
51258;PMS7003;37327;54.254;18.504;2022-09-23T07:34:15;0;0;0
51258;PMS7003;37327;54.254;18.504;2022-09-23T07:37:44;0;0;0
51258;PMS7003;37327;54.254;18.504;2022-09-23T07:43:57;0;0;0
51258;PMS7003;37327;54.254;18.504;2022-09-23T07:47:10;0;0;0
51258;PMS7003;37327;54.254;18.504;2022-09-23T07:50:15;0;0;0
51258;PMS7003;37327;54.254;18.504;2022-09-23T07:53:28;0;0;0
51258;PMS7003;37327;54.254;18.504;2022-09-23T07:56:40;0;0;0
51258;PMS7003;37327;54.254;18.504;2022-09-23T07:59:54;0;0;0
51258;PMS7003;37327;54.254;18.504;2022-09-23T08:03:01;0;0;0
51258;PMS7003;37327;54.254;18.504;2022-09-23T08:06:09;0;0;0
51258;PMS7003;37327;54.254;18.504;2022-09-23T08:09:15;0;0;0
51258;PMS7003;37327;54.254;18.504;2022-09-23T08:12:26;0;0;0
51258;PMS7003;37327;54.254;18.504;2022-09-23T08:15:33;0;0;0
51258;PMS7003;37327;54.254;18.504;2022-09-23T08:18:42;0;0;0
51258;PMS7003;37327;54.254;18.504;2022-09-23T08:21:56;0;0;0
51258;PMS7003;37327;54.254;18.504;2022-09-23T08:25:07;0;0;0
51258;PMS7003;37327;54.254;18.504;2022-09-23T08:28:13;0;0;0
51258;PMS7003;37327;54.254;18.504;2022-09-23T08:31:28;0;0;0
51258;PMS7003;37327;54.254;18.504;2022-09-23T08:34:38;0;0;0
51258;PMS7003;37327;54.254;18.504;2022-09-23T08:37:47;0;0;0
51258;PMS7003;37327;54.254;18.504;2022-09-23T08:44:18;0;0;0
51258;PMS7003;37327;54.254;18.504;2022-09-23T08:50:49;0;0;0
51258;PMS7003;37327;54.254;18.504;2022-09-23T08:54:11;0;0;0
51258;PMS7003;37327;54.254;18.504;2022-09-23T08:57:23;0;0;0
51258;PMS7003;37327;54.254;18.504;2022-09-23T09:03:52;0;0;0
51258;PMS7003;37327;54.254;18.504;2022-09-23T09:07:41;0;0;0
51258;PMS7003;37327;54.254;18.504;2022-09-23T09:10:23;0;0;0
51258;PMS7003;37327;54.254;18.504;2022-09-23T09:13:32;0;0;0
51258;PMS7003;37327;54.254;18.504;2022-09-23T09:17:06;0;0;0
51258;PMS7003;37327;54.254;18.504;2022-09-23T09:27:00;0;0;0
51258;PMS7003;37327;54.254;18.504;2022-09-23T09:30:18;0;0;0
51258;PMS7003;37327;54.254;18.504;2022-09-23T09:40:16;0;0;0
51258;PMS7003;37327;54.254;18.504;2022-09-23T09:43:22;0;0;0
51258;PMS7003;37327;54.254;18.504;2022-09-23T09:46:35;0;0;0
51258;PMS7003;37327;54.254;18.504;2022-09-23T09:49:54;0;0;0
51258;PMS7003;37327;54.254;18.504;2022-09-23T09:56:31;0;0;0
51258;PMS7003;37327;54.254;18.504;2022-09-23T09:59:39;0;0;0
51258;PMS7003;37327;54.254;18.504;2022-09-23T10:02:46;0;0;0
51258;PMS7003;37327;54.254;18.504;2022-09-23T10:05:58;0;0;0
51258;PMS7003;37327;54.254;18.504;2022-09-23T10:09:29;0;0;0
51258;PMS7003;37327;54.254;18.504;2022-09-23T10:15:49;0;0;0
51258;PMS7003;37327;54.254;18.504;2022-09-23T10:19:02;0;0;0
51258;PMS7003;37327;54.254;18.504;2022-09-23T10:22:19;0;0;0
51258;PMS7003;37327;54.254;18.504;2022-09-23T10:25:28;0;0;0
51258;PMS7003;37327;54.254;18.504;2022-09-23T10:28:58;0;0;0
51258;PMS7003;37327;54.254;18.504;2022-09-23T10:35:25;0;0;0
51258;PMS7003;37327;54.254;18.504;2022-09-23T10:38:37;0;0;0
51258;PMS7003;37327;54.254;18.504;2022-09-23T10:41:54;0;0;0
51258;PMS7003;37327;54.254;18.504;2022-09-23T11:02:16;0;0;0
51258;PMS7003;37327;54.254;18.504;2022-09-23T11:05:32;0;0;0
51258;PMS7003;37327;54.254;18.504;2022-09-23T11:22:00;0;0;0
51258;PMS7003;37327;54.254;18.504;2022-09-23T11:28:40;0;0;0
51258;PMS7003;37327;54.254;18.504;2022-09-23T11:31:52;0;0;0
51258;PMS7003;37327;54.254;18.504;2022-09-23T11:35:10;0;0;0
51258;PMS7003;37327;54.254;18.504;2022-09-23T11:38:20;0;0;0
51258;PMS7003;37327;54.254;18.504;2022-09-23T11:41:32;0;0;0
51258;PMS7003;37327;54.254;18.504;2022-09-23T11:44:42;0;0;0
51258;PMS7003;37327;54.254;18.504;2022-09-23T11:47:55;0;0;0
51258;PMS7003;37327;54.254;18.504;2022-09-23T11:51:16;0;0;0
51258;PMS7003;37327;54.254;18.504;2022-09-23T11:54:31;0;0;0
51258;PMS7003;37327;54.254;18.504;2022-09-23T12:01:11;0;0;0
51258;PMS7003;37327;54.254;18.504;2022-09-23T12:33:52;2;0;0
51258;PMS7003;37327;54.254;18.504;2022-09-23T12:37:24;0;0;0
51258;PMS7003;37327;54.254;18.504;2022-09-23T12:40:37;1;0;0
51258;PMS7003;37327;54.254;18.504;2022-09-23T12:43:51;0;0;0
51258;PMS7003;37327;54.254;18.504;2022-09-23T12:47:52;0;0;0
51258;PMS7003;37327;54.254;18.504;2022-09-23T14:00:19;0;0;0
51258;PMS7003;37327;54.254;18.504;2022-09-23T14:03:31;0;0;0
51258;PMS7003;37327;54.254;18.504;2022-09-23T14:07:07;0;0;0
51258;PMS7003;37327;54.254;18.504;2022-09-23T14:10:18;0;0;0
51258;PMS7003;37327;54.254;18.504;2022-09-23T14:13:28;57;49;39
51258;PMS7003;37327;54.254;18.504;2022-09-23T14:16:38;52;42;30
51258;PMS7003;37327;54.254;18.504;2022-09-23T14:19:46;7;6;6
51258;PMS7003;37327;54.254;18.504;2022-09-23T14:23:19;0;0;0
51258;PMS7003;37327;54.254;18.504;2022-09-23T14:26:25;0;0;0
51258;PMS7003;37327;54.254;18.504;2022-09-23T14:29:36;0;0;0
51258;PMS7003;37327;54.254;18.504;2022-09-23T14:32:45;0;0;0
51258;PMS7003;37327;54.254;18.504;2022-09-23T14:36:00;0;0;0
51258;PMS7003;37327;54.254;18.504;2022-09-23T14:39:44;0;0;0
51258;PMS7003;37327;54.254;18.504;2022-09-23T14:46:12;0;0;0
51258;PMS7003;37327;54.254;18.504;2022-09-23T14:49:30;0;0;0
51258;PMS7003;37327;54.254;18.504;2022-09-23T14:52:37;0;0;0
51258;PMS7003;37327;54.254;18.504;2022-09-23T15:00:32;0;0;0
51258;PMS7003;37327;54.254;18.504;2022-09-23T15:07:35;0;0;0
51258;PMS7003;37327;54.254;18.504;2022-09-23T15:10:44;0;0;0
51258;PMS7003;37327;54.254;18.504;2022-09-23T15:13:51;0;0;0
51258;PMS7003;37327;54.254;18.504;2022-09-23T15:17:29;0;0;0
51258;PMS7003;37327;54.254;18.504;2022-09-23T15:24:01;0;0;0
51258;PMS7003;37327;54.254;18.504;2022-09-23T15:27:09;0;0;0
51258;PMS7003;37327;54.254;18.504;2022-09-23T15:30:46;0;0;0
51258;PMS7003;37327;54.254;18.504;2022-09-23T15:33:54;1;1;1
51258;PMS7003;37327;54.254;18.504;2022-09-23T15:37:03;1;0;0
51258;PMS7003;37327;54.254;18.504;2022-09-23T15:40:13;0;0;0
51258;PMS7003;37327;54.254;18.504;2022-09-23T15:43:24;0;0;0
51258;PMS7003;37327;54.254;18.504;2022-09-23T15:46:57;0;0;0
51258;PMS7003;37327;54.254;18.504;2022-09-23T15:50:10;0;0;0
51258;PMS7003;37327;54.254;18.504;2022-09-23T15:53:18;0;0;0
51258;PMS7003;37327;54.254;18.504;2022-09-23T15:56:27;0;0;0
51258;PMS7003;37327;54.254;18.504;2022-09-23T15:59:34;0;0;0
51258;PMS7003;37327;54.254;18.504;2022-09-23T16:03:13;0;0;0
51258;PMS7003;37327;54.254;18.504;2022-09-23T16:06:21;0;0;0
51258;PMS7003;37327;54.254;18.504;2022-09-23T16:09:32;0;0;0
51258;PMS7003;37327;54.254;18.504;2022-09-23T16:12:39;0;0;0
51258;PMS7003;37327;54.254;18.504;2022-09-23T16:15:52;0;0;0
51258;PMS7003;37327;54.254;18.504;2022-09-23T16:19:24;0;0;0
51258;PMS7003;37327;54.254;18.504;2022-09-23T16:22:32;0;0;0
51258;PMS7003;37327;54.254;18.504;2022-09-23T16:25:39;0;0;0
51258;PMS7003;37327;54.254;18.504;2022-09-23T16:28:50;2;0;0
51258;PMS7003;37327;54.254;18.504;2022-09-23T16:31:58;6;4;3
51258;PMS7003;37327;54.254;18.504;2022-09-23T16:35:07;5;3;3
51258;PMS7003;37327;54.254;18.504;2022-09-23T16:38:41;1;1;1
51258;PMS7003;37327;54.254;18.504;2022-09-23T16:41:48;0;0;0
51258;PMS7003;37327;54.254;18.504;2022-09-23T16:44:56;2;0;0
51258;PMS7003;37327;54.254;18.504;2022-09-23T16:48:03;0;0;0
51258;PMS7003;37327;54.254;18.504;2022-09-23T16:51:20;0;0;0
51258;PMS7003;37327;54.254;18.504;2022-09-23T16:54:53;0;0;0
51258;PMS7003;37327;54.254;18.504;2022-09-23T16:58:00;1;0;0
51258;PMS7003;37327;54.254;18.504;2022-09-23T17:01:08;1;1;1
51258;PMS7003;37327;54.254;18.504;2022-09-23T17:04:33;0;0;0
51258;PMS7003;37327;54.254;18.504;2022-09-23T17:08:09;0;0;0
51258;PMS7003;37327;54.254;18.504;2022-09-23T17:11:20;0;0;0
51258;PMS7003;37327;54.254;18.504;2022-09-23T17:14:28;1;1;1
51258;PMS7003;37327;54.254;18.504;2022-09-23T17:17:36;0;0;0
51258;PMS7003;37327;54.254;18.504;2022-09-23T17:20:43;0;0;0
51258;PMS7003;37327;54.254;18.504;2022-09-23T17:23:50;0;0;0
51258;PMS7003;37327;54.254;18.504;2022-09-23T17:27:22;0;0;0
51258;PMS7003;37327;54.254;18.504;2022-09-23T17:30:30;0;0;0
51258;PMS7003;37327;54.254;18.504;2022-09-23T17:33:37;0;0;0
51258;PMS7003;37327;54.254;18.504;2022-09-23T17:36:44;0;0;0
51258;PMS7003;37327;54.254;18.504;2022-09-23T17:39:51;1;0;0
51258;PMS7003;37327;54.254;18.504;2022-09-23T17:42:58;0;0;0
51258;PMS7003;37327;54.254;18.504;2022-09-23T17:46:31;0;0;0
51258;PMS7003;37327;54.254;18.504;2022-09-23T17:49:38;0;0;0
51258;PMS7003;37327;54.254;18.504;2022-09-23T17:52:44;0;0;0
51258;PMS7003;37327;54.254;18.504;2022-09-23T17:59:02;0;0;0
51258;PMS7003;37327;54.254;18.504;2022-09-23T18:02:09;0;0;0
51258;PMS7003;37327;54.254;18.504;2022-09-23T18:05:40;0;0;0
51258;PMS7003;37327;54.254;18.504;2022-09-23T18:08:48;0;0;0
51258;PMS7003;37327;54.254;18.504;2022-09-23T18:11:56;1;0;0
51258;PMS7003;37327;54.254;18.504;2022-09-23T18:15:03;0;0;0
51258;PMS7003;37327;54.254;18.504;2022-09-23T18:18:12;0;0;0
51258;PMS7003;37327;54.254;18.504;2022-09-23T18:21:20;0;0;0
51258;PMS7003;37327;54.254;18.504;2022-09-23T18:24:53;1;0;0
51258;PMS7003;37327;54.254;18.504;2022-09-23T18:27:57;0;0;0
51258;PMS7003;37327;54.254;18.504;2022-09-23T18:31:05;0;0;0
51258;PMS7003;37327;54.254;18.504;2022-09-23T18:34:15;0;0;0
51258;PMS7003;37327;54.254;18.504;2022-09-23T18:37:23;0;0;0
51258;PMS7003;37327;54.254;18.504;2022-09-23T18:40:30;0;0;0
51258;PMS7003;37327;54.254;18.504;2022-09-23T18:44:05;0;0;0
51258;PMS7003;37327;54.254;18.504;2022-09-23T18:47:11;0;0;0
51258;PMS7003;37327;54.254;18.504;2022-09-23T18:50:28;0;0;0
51258;PMS7003;37327;54.254;18.504;2022-09-23T18:53:47;0;0;0
51258;PMS7003;37327;54.254;18.504;2022-09-23T18:57:20;0;0;0
51258;PMS7003;37327;54.254;18.504;2022-09-23T19:00:29;0;0;0
51258;PMS7003;37327;54.254;18.504;2022-09-23T19:03:40;0;0;0
51258;PMS7003;37327;54.254;18.504;2022-09-23T19:06:50;0;0;0
51258;PMS7003;37327;54.254;18.504;2022-09-23T19:10:02;1;0;0
51258;PMS7003;37327;54.254;18.504;2022-09-23T19:13:38;1;0;0
51258;PMS7003;37327;54.254;18.504;2022-09-23T19:16:57;1;0;0
51258;PMS7003;37327;54.254;18.504;2022-09-23T19:20:10;0;0;0
51258;PMS7003;37327;54.254;18.504;2022-09-23T19:23:21;0;0;0
51258;PMS7003;37327;54.254;18.504;2022-09-23T19:26:54;1;1;0
51258;PMS7003;37327;54.254;18.504;2022-09-23T19:30:01;1;1;1
51258;PMS7003;37327;54.254;18.504;2022-09-23T19:33:10;1;1;1
51258;PMS7003;37327;54.254;18.504;2022-09-23T19:36:21;1;1;0
51258;PMS7003;37327;54.254;18.504;2022-09-23T19:39:29;2;2;2
51258;PMS7003;37327;54.254;18.504;2022-09-23T19:42:36;2;2;2
51258;PMS7003;37327;54.254;18.504;2022-09-23T19:46:09;6;6;5
51258;PMS7003;37327;54.254;18.504;2022-09-23T19:49:16;6;6;6
51258;PMS7003;37327;54.254;18.504;2022-09-23T19:52:23;9;9;7
51258;PMS7003;37327;54.254;18.504;2022-09-23T19:55:30;9;9;7
51258;PMS7003;37327;54.254;18.504;2022-09-23T19:58:41;12;9;9
51258;PMS7003;37327;54.254;18.504;2022-09-23T20:01:53;11;11;10
51258;PMS7003;37327;54.254;18.504;2022-09-23T20:05:26;10;10;9
51258;PMS7003;37327;54.254;18.504;2022-09-23T20:08:33;13;12;11
51258;PMS7003;37327;54.254;18.504;2022-09-23T20:11:39;19;17;13
51258;PMS7003;37327;54.254;18.504;2022-09-23T20:14:49;17;16;13
51258;PMS7003;37327;54.254;18.504;2022-09-23T20:17:57;16;15;12
51258;PMS7003;37327;54.254;18.504;2022-09-23T20:21:04;16;16;14
51258;PMS7003;37327;54.254;18.504;2022-09-23T20:24:12;16;12;11
51258;PMS7003;37327;54.254;18.504;2022-09-23T20:27:49;13;13;12
51258;PMS7003;37327;54.254;18.504;2022-09-23T20:30:58;13;11;9
51258;PMS7003;37327;54.254;18.504;2022-09-23T20:34:06;9;9;9
51258;PMS7003;37327;54.254;18.504;2022-09-23T20:37:15;9;9;8
51258;PMS7003;37327;54.254;18.504;2022-09-23T20:40:25;9;8;7
51258;PMS7003;37327;54.254;18.504;2022-09-23T20:43:59;8;8;7
51258;PMS7003;37327;54.254;18.504;2022-09-23T20:47:07;8;8;7
51258;PMS7003;37327;54.254;18.504;2022-09-23T20:50:18;11;8;6
51258;PMS7003;37327;54.254;18.504;2022-09-23T20:53:25;5;5;4
51258;PMS7003;37327;54.254;18.504;2022-09-23T20:56:33;6;6;5
51258;PMS7003;37327;54.254;18.504;2022-09-23T20:59:40;8;7;7
51258;PMS7003;37327;54.254;18.504;2022-09-23T21:03:14;7;7;6
51258;PMS7003;37327;54.254;18.504;2022-09-23T21:06:20;10;7;5
51258;PMS7003;37327;54.254;18.504;2022-09-23T21:09:31;7;6;5
51258;PMS7003;37327;54.254;18.504;2022-09-23T21:12:39;7;7;6
51258;PMS7003;37327;54.254;18.504;2022-09-23T21:15:45;9;7;6
51258;PMS7003;37327;54.254;18.504;2022-09-23T21:18:52;7;6;5
51258;PMS7003;37327;54.254;18.504;2022-09-23T21:22:26;10;6;5
51258;PMS7003;37327;54.254;18.504;2022-09-23T21:25:33;7;7;6
51258;PMS7003;37327;54.254;18.504;2022-09-23T21:28:42;8;6;6
51258;PMS7003;37327;54.254;18.504;2022-09-23T21:31:50;8;6;5
51258;PMS7003;37327;54.254;18.504;2022-09-23T21:34:59;8;6;5
51258;PMS7003;37327;54.254;18.504;2022-09-23T21:38:08;7;6;6
51258;PMS7003;37327;54.254;18.504;2022-09-23T21:41:39;7;6;6
51258;PMS7003;37327;54.254;18.504;2022-09-23T21:44:46;6;5;5
51258;PMS7003;37327;54.254;18.504;2022-09-23T21:47:54;5;5;4
51258;PMS7003;37327;54.254;18.504;2022-09-23T21:51:05;6;5;5
51258;PMS7003;37327;54.254;18.504;2022-09-23T21:54:14;4;4;3
51258;PMS7003;37327;54.254;18.504;2022-09-23T21:57:22;5;4;4
51258;PMS7003;37327;54.254;18.504;2022-09-23T22:00:56;3;3;2
51258;PMS7003;37327;54.254;18.504;2022-09-23T22:04:12;4;4;3
51258;PMS7003;37327;54.254;18.504;2022-09-23T22:07:21;3;3;3
51258;PMS7003;37327;54.254;18.504;2022-09-23T22:10:28;5;5;4
51258;PMS7003;37327;54.254;18.504;2022-09-23T22:13:35;4;3;3
51258;PMS7003;37327;54.254;18.504;2022-09-23T22:17:08;2;2;2
51258;PMS7003;37327;54.254;18.504;2022-09-23T22:20:21;4;2;1
51258;PMS7003;37327;54.254;18.504;2022-09-23T22:23:28;6;3;3
51258;PMS7003;37327;54.254;18.504;2022-09-23T22:26:40;6;4;3
51258;PMS7003;37327;54.254;18.504;2022-09-23T22:29:49;6;3;3
51258;PMS7003;37327;54.254;18.504;2022-09-23T22:33:36;2;1;1
51258;PMS7003;37327;54.254;18.504;2022-09-23T22:36:42;1;1;1
51258;PMS7003;37327;54.254;18.504;2022-09-23T22:39:50;1;1;1
51258;PMS7003;37327;54.254;18.504;2022-09-23T22:42:56;1;1;1
51258;PMS7003;37327;54.254;18.504;2022-09-23T22:46:04;1;1;1
51258;PMS7003;37327;54.254;18.504;2022-09-23T22:49:11;1;1;0
51258;PMS7003;37327;54.254;18.504;2022-09-23T22:52:44;1;1;1
51258;PMS7003;37327;54.254;18.504;2022-09-23T22:55:55;0;0;0
51258;PMS7003;37327;54.254;18.504;2022-09-23T22:59:06;2;2;1
51258;PMS7003;37327;54.254;18.504;2022-09-23T23:02:15;2;1;1
51258;PMS7003;37327;54.254;18.504;2022-09-23T23:05:24;2;1;1
51258;PMS7003;37327;54.254;18.504;2022-09-23T23:08:57;1;1;1
51258;PMS7003;37327;54.254;18.504;2022-09-23T23:12:06;2;1;1
51258;PMS7003;37327;54.254;18.504;2022-09-23T23:15:14;1;1;1
51258;PMS7003;37327;54.254;18.504;2022-09-23T23:18:21;1;1;1
51258;PMS7003;37327;54.254;18.504;2022-09-23T23:21:32;2;1;1
51258;PMS7003;37327;54.254;18.504;2022-09-23T23:24:40;0;0;0
51258;PMS7003;37327;54.254;18.504;2022-09-23T23:28:16;2;1;1
51258;PMS7003;37327;54.254;18.504;2022-09-23T23:31:23;1;1;1
51258;PMS7003;37327;54.254;18.504;2022-09-23T23:34:32;0;0;0
51258;PMS7003;37327;54.254;18.504;2022-09-23T23:37:39;0;0;0
51258;PMS7003;37327;54.254;18.504;2022-09-23T23:40:46;1;0;0
51258;PMS7003;37327;54.254;18.504;2022-09-23T23:43:57;2;2;2
51258;PMS7003;37327;54.254;18.504;2022-09-23T23:47:31;2;2;2
51258;PMS7003;37327;54.254;18.504;2022-09-23T23:50:38;2;0;0
51258;PMS7003;37327;54.254;18.504;2022-09-23T23:53:46;1;1;1
51258;PMS7003;37327;54.254;18.504;2022-09-23T23:56:53;3;2;2
